Time;durP1;ratioP1;P1;durP2;ratioP2;P2;SDS_P1;SDS_P2;PMS_P1;PMS_P2;Temp;Humidity;BMP_temperature;BMP_pressure;BME280_temperature;BME280_humidity;BME280_pressure;Samples;Min_cycle;Max_cycle;Signal;HPM_P1;HPM_P2
2023/07/09 00:03:54;;;;;;;11.90;8.00;;;;;;;14.55;81.92;99475.17;273769;1264;22505;-77
2023/07/09 00:09:55;;;;;;;9.40;6.70;;;;;;;14.50;82.66;99469.16;273689;1266;22201;-78
2023/07/09 00:16:04;;;;;;;15.80;7.30;;;;;;;14.42;83.19;99468.43;273137;1266;22560;-78
2023/07/09 00:22:16;;;;;;;11.40;6.90;;;;;;;14.38;83.38;99469.37;273646;1267;23506;-78
2023/07/09 00:28:41;;;;;;;13.00;7.60;;;;;;;14.30;83.67;99471.63;273690;1266;22210;-78
2023/07/09 00:34:58;;;;;;;;;;;;;;;;;;;;;
2023/07/09 00:41:24;;;;;;;17.40;6.50;;;;;;;13.95;83.79;99479.14;273643;1266;24293;-78
2023/07/09 00:47:30;;;;;;;10.60;7.40;;;;;;;13.89;84.42;99475.88;273677;1255;22322;-77
2023/07/09 00:53:32;;;;;;;12.20;7.90;;;;;;;13.78;84.25;99480.77;273470;1257;22375;-78
2023/07/09 01:00:00;;;;;;;13.10;7.80;;;;;;;13.61;84.11;99479.56;273289;1254;22384;-81
2023/07/09 01:06:09;;;;;;;11.30;7.70;;;;;;;13.44;84.41;99476.92;273568;1266;23318;-77
2023/07/09 01:12:10;;;;;;;12.00;7.30;;;;;;;13.27;85.00;99470.45;273350;1266;22409;-77
2023/07/09 01:18:11;;;;;;;12.30;8.20;;;;;;;13.15;85.65;99471.98;273396;1266;22454;-77
2023/07/09 01:24:15;;;;;;;11.40;7.50;;;;;;;13.03;86.04;99475.58;273607;1257;22344;-78
2023/07/09 01:30:28;;;;;;;12.30;7.90;;;;;;;12.94;85.97;99474.84;273492;1266;24139;-78
2023/07/09 01:36:31;;;;;;;10.80;7.70;;;;;;;12.88;86.43;99469.91;273521;1257;22407;-77
2023/07/09 01:42:32;;;;;;;13.10;7.70;;;;;;;12.77;87.00;99466.75;273712;1266;22396;-77
2023/07/09 01:48:40;;;;;;;14.50;7.70;;;;;;;12.68;87.40;99467.05;273698;1266;22183;-77
2023/07/09 01:54:56;;;;;;;13.10;8.20;;;;;;;12.62;88.06;99468.02;273588;1257;22405;-77
2023/07/09 02:00:58;;;;;;;12.70;8.40;;;;;;;12.57;88.17;99472.98;273797;1254;23789;-77
2023/07/09 02:06:59;;;;;;;11.20;8.20;;;;;;;12.52;88.32;99477.01;273387;1266;22176;-77
2023/07/09 02:13:01;;;;;;;10.80;7.60;;;;;;;12.44;88.24;99480.46;273748;1266;22359;-77
2023/07/09 02:19:02;;;;;;;11.30;8.30;;;;;;;12.42;88.84;99477.21;273572;1257;22271;-77
2023/07/09 02:25:05;;;;;;;9.90;7.40;;;;;;;12.41;89.38;99483.39;273799;1263;22209;-77
2023/07/09 02:31:07;;;;;;;12.00;7.50;;;;;;;12.36;89.69;99492.75;273612;1266;23851;-78
2023/07/09 02:37:08;;;;;;;10.20;7.60;;;;;;;12.36;90.12;99495.42;273788;1254;22473;-77
2023/07/09 02:43:09;;;;;;;11.10;7.40;;;;;;;12.34;90.20;99501.44;273714;1266;22461;-78
2023/07/09 02:49:11;;;;;;;14.70;8.00;;;;;;;12.28;90.46;99507.09;273657;1266;22327;-77
2023/07/09 02:55:12;;;;;;;11.10;7.60;;;;;;;12.26;90.73;99510.04;273579;1266;22409;-77
2023/07/09 03:01:34;;;;;;;11.50;6.70;;;;;;;12.25;90.93;99515.44;273789;1266;23509;-76
2023/07/09 03:07:35;;;;;;;10.70;6.40;;;;;;;12.20;91.39;99520.31;272876;1266;103366;-77
2023/07/09 03:13:36;;;;;;;8.60;6.70;;;;;;;12.21;91.58;99524.17;273424;1266;22239;-79
2023/07/09 03:19:37;;;;;;;9.40;6.40;;;;;;;12.29;92.17;99528.67;273439;1257;22365;-77
2023/07/09 03:25:42;;;;;;;8.40;5.70;;;;;;;12.44;92.44;99523.28;273342;1266;22402;-77
2023/07/09 03:31:44;;;;;;;8.30;5.70;;;;;;;12.50;91.95;99527.05;273266;1257;23301;-77
2023/07/09 03:37:46;;;;;;;8.60;5.70;;;;;;;12.44;92.30;99534.19;273264;1267;22247;-78
2023/07/09 03:44:08;;;;;;;9.60;5.80;;;;;;;12.53;92.53;99533.05;273290;1266;22439;-77
2023/07/09 03:50:10;;;;;;;8.90;5.50;;;;;;;12.64;92.78;99525.40;273103;1256;22390;-80
2023/07/09 03:56:26;;;;;;;9.40;6.40;;;;;;;12.71;92.62;99525.86;273253;1266;22480;-77
2023/07/09 04:02:28;;;;;;;9.30;6.40;;;;;;;12.73;92.90;99531.86;273532;1266;22468;-77
2023/07/09 04:08:29;;;;;;;7.50;6.20;;;;;;;12.84;93.08;99528.98;273448;1257;23190;-77
2023/07/09 04:14:30;;;;;;;11.00;6.90;;;;;;;12.98;92.86;99531.11;273291;1252;23777;-80
2023/07/09 04:20:31;;;;;;;8.80;5.80;;;;;;;13.11;92.81;99525.13;273378;1256;22457;-77
2023/07/09 04:26:32;;;;;;;9.00;6.30;;;;;;;13.27;92.85;99526.69;273607;1263;22410;-77
2023/07/09 04:32:33;;;;;;;10.00;6.00;;;;;;;13.43;92.84;99527.92;273590;1266;23818;-81
2023/07/09 04:38:33;;;;;;;8.60;6.10;;;;;;;13.61;92.56;99526.09;273433;1266;23510;-76
2023/07/09 04:44:34;;;;;;;10.10;5.40;;;;;;;13.79;92.15;99517.98;273596;1266;23638;-77
2023/07/09 04:50:35;;;;;;;8.40;5.70;;;;;;;13.95;92.02;99513.66;273427;1266;22417;-77
2023/07/09 04:56:37;;;;;;;10.20;6.10;;;;;;;14.12;92.17;99520.77;273399;1266;23310;-77
2023/07/09 05:02:53;;;;;;;8.90;5.60;;;;;;;14.31;92.18;99526.22;273443;1257;22253;-77
2023/07/09 05:08:54;;;;;;;8.00;5.40;;;;;;;14.53;92.12;99522.39;273654;1257;22500;-81
2023/07/09 05:14:56;;;;;;;8.90;5.40;;;;;;;14.73;91.80;99526.16;273134;1257;22461;-77
2023/07/09 05:20:57;;;;;;;8.20;5.30;;;;;;;14.95;91.72;99525.41;273334;1253;22734;-77
2023/07/09 05:26:58;;;;;;;6.10;4.60;;;;;;;15.21;91.38;99524.67;272657;1250;23766;-80
2023/07/09 05:32:59;;;;;;;6.70;4.60;;;;;;;15.52;90.94;99523.91;272875;1266;22424;-78
2023/07/09 05:39:01;;;;;;;6.90;4.10;;;;;;;15.86;90.77;99526.02;273114;1253;22616;-77
2023/07/09 05:45:03;;;;;;;8.50;4.30;;;;;;;16.18;90.39;99528.45;273380;1266;22298;-78
2023/07/09 05:51:04;;;;;;;7.70;5.00;;;;;;;16.45;90.00;99526.48;273433;1266;23844;-78
2023/07/09 05:57:05;;;;;;;6.00;4.40;;;;;;;16.71;89.69;99527.11;272715;1263;22264;-77
2023/07/09 06:03:07;;;;;;;6.80;4.30;;;;;;;16.99;89.15;99533.02;273648;1253;22373;-77
2023/07/09 06:09:28;;;;;;;6.20;3.50;;;;;;;17.27;88.85;99541.29;273566;1266;22206;-77
2023/07/09 06:15:29;;;;;;;6.80;3.80;;;;;;;17.54;88.44;99540.38;273556;1266;23812;-79
2023/07/09 06:21:30;;;;;;;5.40;3.60;;;;;;;17.82;87.95;99533.82;273690;1253;22285;-78
2023/07/09 06:27:31;;;;;;;6.40;4.00;;;;;;;18.14;87.93;99536.98;273476;1260;22448;-78
2023/07/09 06:33:32;;;;;;;8.50;4.60;;;;;;;18.45;87.44;99538.88;273043;1259;22309;-77
2023/07/09 06:39:32;;;;;;;7.90;4.40;;;;;;;18.76;87.04;99544.50;273421;1264;22298;-77
2023/07/09 06:45:33;;;;;;;7.20;4.30;;;;;;;19.07;86.36;99546.05;273442;1266;23272;-76
2023/07/09 06:51:35;;;;;;;6.00;4.20;;;;;;;19.43;85.46;99542.05;273184;1266;23610;-80
2023/07/09 06:57:36;;;;;;;5.00;4.00;;;;;;;19.86;84.39;99536.32;273635;1266;23169;-78
2023/07/09 07:03:38;;;;;;;6.20;3.80;;;;;;;20.49;83.38;99533.38;273253;1254;22417;-78
2023/07/09 07:09:39;;;;;;;5.10;3.50;;;;;;;21.28;81.60;99529.02;273158;1257;22172;-78
2023/07/09 07:15:41;;;;;;;5.60;3.50;;;;;;;22.13;79.53;99523.39;273703;1267;23670;-77
2023/07/09 07:21:41;;;;;;;4.40;3.00;;;;;;;22.92;78.19;99529.82;273408;1266;22776;-78
2023/07/09 07:27:42;;;;;;;6.80;2.90;;;;;;;23.64;76.27;99529.06;273633;1266;22501;-78
2023/07/09 07:33:43;;;;;;;6.70;3.10;;;;;;;24.23;73.68;99527.92;273563;1266;23535;-78
2023/07/09 07:39:45;;;;;;;4.30;2.80;;;;;;;24.59;71.58;99527.88;272919;1266;22621;-78
2023/07/09 07:46:02;;;;;;;5.90;3.10;;;;;;;24.90;69.61;99526.59;272878;1257;23852;-78
2023/07/09 07:52:03;;;;;;;4.80;3.10;;;;;;;25.24;68.25;99526.05;272905;1266;22387;-78
2023/07/09 07:58:04;;;;;;;4.80;3.10;;;;;;;25.52;66.58;99522.36;273520;1260;22245;-78
2023/07/09 08:04:05;;;;;;;7.30;3.00;;;;;;;25.62;65.13;99522.27;273217;1266;23573;-77
2023/07/09 08:10:06;;;;;;;3.90;3.00;;;;;;;25.67;63.82;99516.10;273600;1266;23494;-78
2023/07/09 08:16:08;;;;;;;4.80;3.00;;;;;;;25.79;63.21;99514.26;272706;1253;22322;-77
2023/07/09 08:22:09;;;;;;;4.40;3.10;;;;;;;25.94;62.28;99509.21;273567;1266;22414;-78
2023/07/09 08:28:10;;;;;;;5.60;3.00;;;;;;;26.09;61.19;99506.63;273780;1266;22198;-77
2023/07/09 08:34:11;;;;;;;3.50;3.10;;;;;;;26.27;59.84;99507.52;273440;1266;22428;-78
2023/07/09 08:40:16;;;;;;;3.80;3.20;;;;;;;26.43;59.14;99504.73;273589;1263;22498;-79
2023/07/09 08:46:28;;;;;;;3.30;3.00;;;;;;;26.46;58.38;99497.84;273368;1266;24756;-79
2023/07/09 08:52:54;;;;;;;6.50;3.10;;;;;;;26.51;57.96;99499.14;273483;1266;23672;-78
2023/07/09 08:59:00;;;;;;;5.60;3.10;;;;;;;26.55;57.34;99500.41;273589;1257;22499;-78
2023/07/09 09:05:04;;;;;;;5.10;2.70;;;;;;;26.58;56.40;99496.26;273580;1265;22513;-79
2023/07/09 09:11:11;;;;;;;5.20;3.20;;;;;;;26.62;56.13;99493.98;273464;1259;22237;-78
2023/07/09 09:17:18;;;;;;;3.50;3.00;;;;;;;26.74;55.62;99490.08;273726;1260;23839;-77
2023/07/09 09:23:20;;;;;;;4.40;3.00;;;;;;;26.91;55.48;99490.23;273442;1266;23929;-78
2023/07/09 09:29:32;;;;;;;5.20;3.40;;;;;;;27.07;54.36;99491.09;273446;1266;22430;-79
2023/07/09 09:35:36;;;;;;;5.90;2.80;;;;;;;27.41;53.63;99493.33;273339;1266;22467;-80
2023/07/09 09:41:37;;;;;;;4.60;2.80;;;;;;;27.83;52.64;99497.52;273434;1266;23373;-79
2023/07/09 09:47:38;;;;;;;4.60;2.90;;;;;;;28.20;50.30;99493.80;273187;1257;22781;-79
2023/07/09 09:53:44;;;;;;;4.00;2.60;;;;;;;28.63;50.11;99489.32;273436;1266;22496;-78
2023/07/09 09:59:46;;;;;;;3.90;2.40;;;;;;;29.16;49.59;99482.22;273554;1266;22394;-81
2023/07/09 10:06:27;;;;;;;4.60;2.60;;;;;;;29.68;48.48;99481.47;273496;1260;22391;-77
2023/07/09 10:13:00;;;;;;;3.80;2.80;;;;;;;30.00;47.47;99475.80;273040;1266;23676;-78
2023/07/09 10:19:07;;;;;;;4.60;2.60;;;;;;;30.22;46.24;99476.98;273535;1263;22344;-77
2023/07/09 10:25:37;;;;;;;5.80;2.70;;;;;;;30.56;44.62;99472.77;273360;1256;22409;-77
2023/07/09 10:32:13;;;;;;;3.90;2.70;;;;;;;30.96;43.25;99466.98;273385;1264;22513;-78
2023/07/09 10:38:39;;;;;;;3.60;2.50;;;;;;;31.11;41.64;99470.10;273442;1266;23376;-77
2023/07/09 10:44:44;;;;;;;3.30;2.50;;;;;;;31.34;41.48;99467.55;273292;1266;22388;-80
2023/07/09 10:50:52;;;;;;;6.30;2.70;;;;;;;31.42;41.03;99458.65;273540;1263;22410;-78
2023/07/09 10:57:00;;;;;;;2.90;2.20;;;;;;;31.47;39.87;99457.65;273498;1266;22435;-79
2023/07/09 11:03:39;;;;;;;4.50;2.80;;;;;;;31.55;39.31;99454.61;272242;1266;22462;-79
2023/07/09 11:09:43;;;;;;;7.70;2.90;;;;;;;31.46;38.42;99454.91;273929;1266;22587;-78
2023/07/09 11:15:49;;;;;;;3.50;2.50;;;;;;;31.24;37.49;99451.27;270985;1266;22318;-80
2023/07/09 11:22:13;;;;;;;;;;;;;;;30.34;36.42;99450.61;273192;1257;22453;-78
2023/07/09 11:28:14;;;;;;;4.70;2.30;;;;;;;29.83;36.73;99447.49;273198;1263;23785;-81
2023/07/09 11:34:27;;;;;;;3.60;3.20;;;;;;;29.32;37.60;99443.05;273337;1266;22414;-78
2023/07/09 11:40:28;;;;;;;3.60;2.90;;;;;;;28.90;37.82;99439.78;272623;1266;22228;-79
2023/07/09 11:46:31;;;;;;;5.90;3.00;;;;;;;29.10;38.24;99433.85;273730;1263;22492;-81
2023/07/09 11:53:10;;;;;;;4.00;2.70;;;;;;;29.41;38.68;99430.58;273309;1266;22414;-81
2023/07/09 11:59:12;;;;;;;2.90;2.60;;;;;;;30.01;38.78;99421.45;273308;1266;22667;-79
2023/07/09 12:05:19;;;;;;;3.40;3.00;;;;;;;30.45;37.99;99419.42;272993;1257;22468;-80
2023/07/09 12:11:27;;;;;;;3.10;2.50;;;;;;;30.29;37.88;99421.82;273650;1266;22232;-77
2023/07/09 12:17:30;;;;;;;8.50;2.70;;;;;;;30.00;37.41;99412.98;273345;1266;22448;-78
2023/07/09 12:23:32;;;;;;;2.90;2.60;;;;;;;29.98;38.47;99402.77;273311;1260;22335;-78
2023/07/09 12:29:35;;;;;;;4.00;2.70;;;;;;;29.78;37.89;99404.24;273064;1266;24225;-79
2023/07/09 12:35:36;;;;;;;3.20;2.80;;;;;;;29.75;37.17;99394.52;273213;1266;22396;-79
2023/07/09 12:41:47;;;;;;;3.60;2.80;;;;;;;29.75;36.66;99390.77;273293;1266;22288;-79
2023/07/09 12:47:49;;;;;;;6.10;2.80;;;;;;;29.65;35.64;99391.16;273414;1263;22318;-79
2023/07/09 12:54:08;;;;;;;4.40;3.00;;;;;;;29.58;35.15;99386.34;273093;1266;22404;-78
2023/07/09 13:00:30;;;;;;;3.60;2.80;;;;;;;29.41;35.26;99377.76;273570;1263;22413;-78
2023/07/09 13:06:35;;;;;;;5.80;3.30;;;;;;;29.37;35.46;99367.04;273463;1266;22405;-77
2023/07/09 13:12:38;;;;;;;3.50;2.60;;;;;;;29.40;35.74;99368.27;273382;1261;22373;-79
2023/07/09 13:18:39;;;;;;;4.50;2.80;;;;;;;29.19;35.45;99368.91;273258;1266;22463;-80
2023/07/09 13:24:40;;;;;;;9.00;3.30;;;;;;;29.02;35.66;99373.98;273407;1257;23843;-79
2023/07/09 13:30:42;;;;;;;4.70;2.80;;;;;;;28.76;36.13;99371.58;273086;1266;22773;-79
2023/07/09 13:36:43;;;;;;;3.70;3.00;;;;;;;28.60;36.26;99365.11;273247;1266;22416;-79
2023/07/09 13:42:44;;;;;;;3.20;2.80;;;;;;;28.70;36.77;99361.65;273203;1264;22124;-79
2023/07/09 13:48:46;;;;;;;3.60;2.80;;;;;;;28.78;37.00;99354.98;273322;1266;22201;-81
2023/07/09 13:54:50;;;;;;;4.60;3.10;;;;;;;28.76;36.96;99352.61;273175;1266;24168;-79
2023/07/09 14:01:15;;;;;;;5.70;3.60;;;;;;;28.77;36.56;99352.38;273667;1264;22264;-79
2023/07/09 14:07:37;;;;;;;3.30;3.00;;;;;;;28.72;36.64;99350.51;273185;1267;22268;-79
2023/07/09 14:13:39;;;;;;;5.10;3.10;;;;;;;28.65;37.26;99352.20;273322;1266;23530;-78
2023/07/09 14:19:41;;;;;;;3.00;2.70;;;;;;;28.61;37.34;99352.04;273505;1266;22562;-78
2023/07/09 14:26:07;;;;;;;7.60;3.30;;;;;;;28.61;36.42;99349.73;273801;1266;22367;-79
2023/07/09 14:32:30;;;;;;;3.90;3.20;;;;;;;28.64;36.24;99348.30;273100;1264;23758;-80
2023/07/09 14:38:35;;;;;;;3.60;3.30;;;;;;;28.68;35.89;99345.49;272850;1261;22407;-80
2023/07/09 14:44:40;;;;;;;4.40;3.50;;;;;;;28.61;36.40;99341.54;273408;1267;22272;-78
2023/07/09 14:50:41;;;;;;;5.50;3.00;;;;;;;28.37;36.91;99338.13;273633;1261;22453;-78
2023/07/09 14:56:42;;;;;;;4.20;3.50;;;;;;;28.20;37.14;99338.42;273429;1264;22438;-82
2023/07/09 15:02:45;;;;;;;4.20;3.00;;;;;;;28.10;37.27;99333.19;273243;1266;22258;-79
2023/07/09 15:08:46;;;;;;;3.90;3.20;;;;;;;28.09;37.63;99329.23;272596;1267;753701;-78
2023/07/09 15:14:47;;;;;;;4.80;3.70;;;;;;;28.10;38.14;99319.92;273219;1266;23986;-77
2023/07/09 15:20:57;;;;;;;3.10;2.70;;;;;;;28.10;38.03;99311.45;273248;1257;22448;-78
2023/07/09 15:27:00;;;;;;;4.70;3.30;;;;;;;28.10;38.06;99310.46;273494;1261;22334;-78
2023/07/09 15:33:01;;;;;;;5.70;3.60;;;;;;;28.03;37.81;99308.14;273038;1261;23263;-78
2023/07/09 15:39:02;;;;;;;5.60;4.00;;;;;;;27.98;38.14;99303.35;273248;1264;22420;-81
2023/07/09 15:45:04;;;;;;;5.20;3.70;;;;;;;27.99;38.09;99299.08;273285;1266;22480;-78
2023/07/09 15:51:05;;;;;;;4.00;3.20;;;;;;;28.17;37.24;99295.45;273495;1266;23119;-82
2023/07/09 15:57:08;;;;;;;8.20;3.30;;;;;;;28.22;37.24;99291.44;273576;1266;22372;-78
2023/07/09 16:03:09;;;;;;;6.00;3.30;;;;;;;28.11;37.74;99291.30;272535;1258;22668;-79
2023/07/09 16:09:11;;;;;;;6.40;3.40;;;;;;;27.97;37.49;99290.60;272234;1267;22435;-80
2023/07/09 16:15:14;;;;;;;5.70;3.30;;;;;;;27.83;37.85;99284.90;273283;1266;22199;-78
2023/07/09 16:21:24;;;;;;;3.40;3.10;;;;;;;27.61;38.07;99284.19;273305;1263;22425;-78
2023/07/09 16:27:25;;;;;;;3.60;3.20;;;;;;;27.41;39.15;99281.30;273062;1266;22595;-78
2023/07/09 16:33:27;;;;;;;4.80;3.10;;;;;;;27.31;39.38;99277.51;273031;1267;22368;-78
2023/07/09 16:39:38;;;;;;;3.80;3.30;;;;;;;27.28;39.39;99276.91;272975;1266;23316;-80
2023/07/09 16:45:39;;;;;;;3.90;3.20;;;;;;;27.31;39.33;99276.80;273148;1265;22282;-79
2023/07/09 16:51:40;;;;;;;4.00;3.30;;;;;;;27.31;39.84;99277.62;272979;1265;22372;-82
2023/07/09 16:57:42;;;;;;;3.50;3.00;;;;;;;27.29;39.76;99284.62;272832;1264;22344;-78
2023/07/09 17:03:43;;;;;;;9.70;3.60;;;;;;;27.29;39.82;99288.67;273589;1256;22320;-81
2023/07/09 17:09:44;;;;;;;4.40;3.30;;;;;;;27.27;40.21;99292.58;273818;1266;22383;-79
2023/07/09 17:15:45;;;;;;;3.70;3.30;;;;;;;27.21;40.21;99293.27;273897;1263;22206;-79
2023/07/09 17:21:48;;;;;;;6.30;3.20;;;;;;;27.06;40.16;99292.73;273917;1251;22279;-79
2023/07/09 17:27:49;;;;;;;5.50;3.30;;;;;;;26.93;40.23;99289.67;273812;1253;22498;-79
2023/07/09 17:33:50;;;;;;;4.20;2.90;;;;;;;26.78;40.30;99299.23;273661;1266;22392;-79
2023/07/09 17:39:51;;;;;;;7.40;3.40;;;;;;;26.65;40.63;99302.05;266173;1266;10001623;-78
2023/07/09 17:45:56;;;;;;;7.20;4.40;;;;;;;26.51;40.77;99312.33;273726;1254;22381;-79
2023/07/09 17:51:59;;;;;;;4.70;3.90;;;;;;;26.45;40.87;99315.50;273803;1266;22298;-81
2023/07/09 17:58:00;;;;;;;4.20;3.20;;;;;;;26.37;41.07;99314.61;273573;1266;23709;-79
2023/07/09 18:04:01;;;;;;;6.40;3.80;;;;;;;26.24;41.27;99312.23;273770;1266;23506;-81
2023/07/09 18:10:02;;;;;;;7.00;3.90;;;;;;;26.05;42.18;99309.14;273573;1260;22406;-79
2023/07/09 18:16:04;;;;;;;4.30;3.80;;;;;;;25.77;42.50;99310.98;273793;1266;22420;-80
2023/07/09 18:22:13;;;;;;;5.50;3.60;;;;;;;25.55;43.02;99310.45;273518;1266;22304;-79
2023/07/09 18:28:28;;;;;;;6.00;4.00;;;;;;;25.34;43.39;99316.84;273713;1266;23528;-79
2023/07/09 18:34:31;;;;;;;7.20;3.80;;;;;;;25.13;43.74;99316.64;273686;1266;23208;-78
2023/07/09 18:40:40;;;;;;;6.90;4.20;;;;;;;24.91;44.55;99324.38;272923;1266;22684;-80
2023/07/09 18:46:41;;;;;;;6.80;4.20;;;;;;;24.59;45.39;99330.66;273369;1266;23481;-79
2023/07/09 18:52:43;;;;;;;6.30;3.80;;;;;;;24.28;46.20;99338.61;273622;1266;22296;-79
2023/07/09 18:58:44;;;;;;;5.40;4.10;;;;;;;23.96;46.93;99341.36;273629;1256;23182;-79
2023/07/09 19:04:45;;;;;;;5.40;4.20;;;;;;;23.60;47.98;99344.44;273798;1253;22498;-78
2023/07/09 19:10:46;;;;;;;7.60;4.90;;;;;;;23.27;49.29;99349.44;273819;1266;22470;-78
2023/07/09 19:17:02;;;;;;;8.50;4.60;;;;;;;22.99;50.18;99350.38;273679;1257;23805;-78
2023/07/09 19:23:03;;;;;;;9.20;5.20;;;;;;;22.70;51.22;99352.93;273663;1266;22465;-79
2023/07/09 19:29:04;;;;;;;8.30;5.80;;;;;;;22.43;52.15;99354.23;273739;1266;22513;-79
2023/07/09 19:35:08;;;;;;;7.20;5.20;;;;;;;22.14;53.09;99353.48;273719;1266;22273;-78
2023/07/09 19:41:14;;;;;;;8.50;5.90;;;;;;;21.84;53.87;99355.92;273703;1266;23174;-78
2023/07/09 19:47:35;;;;;;;10.40;6.90;;;;;;;21.60;54.77;99354.29;273726;1266;22466;-78
2023/07/09 19:54:16;;;;;;;11.20;7.10;;;;;;;21.34;55.66;99361.64;273715;1264;22370;-77
2023/07/09 20:00:56;;;;;;;;;;;;;;;;;;;;;
2023/07/09 20:07:43;;;;;;;8.30;6.50;;;;;;;20.80;58.57;99366.84;273794;1266;23813;-77
2023/07/09 20:14:00;;;;;;;;;;;;;;;;;;;;;
2023/07/09 20:20:10;;;;;;;11.70;7.20;;;;;;;20.28;59.32;99367.58;273622;1263;22247;-78
2023/07/09 20:26:12;;;;;;;10.80;7.20;;;;;;;20.08;60.18;99373.69;273699;1266;22402;-78
2023/07/09 20:32:35;;;;;;;;;;;;;;;;;;;;;
2023/07/09 20:38:53;;;;;;;;;;;;;;;19.67;61.89;99386.20;273810;1266;22468;-78
2023/07/09 20:46:19;;;;;;;9.40;7.20;;;;;;;19.49;62.38;99388.29;273288;1266;22378;-78
2023/07/09 20:52:33;;;;;;;9.50;6.80;;;;;;;19.29;63.55;99397.21;272339;1266;22421;-78
2023/07/09 20:58:50;;;;;;;9.60;7.20;;;;;;;19.11;65.97;99410.51;272059;1266;24622;-77
2023/07/09 21:05:17;;;;;;;11.70;7.50;;;;;;;18.95;66.57;99413.06;272687;1266;25369;-78
2023/07/09 21:11:18;;;;;;;12.70;7.90;;;;;;;18.80;66.75;99415.91;273822;1266;22399;-78
2023/07/09 21:17:22;;;;;;;10.40;7.50;;;;;;;18.66;67.53;99421.43;274174;1266;22213;-77
2023/07/09 21:23:24;;;;;;;13.20;8.30;;;;;;;18.56;67.73;99427.44;274016;1260;22428;-77
2023/07/09 21:29:28;;;;;;;9.30;6.40;;;;;;;18.46;68.97;99438.11;273836;1256;22455;-77
2023/07/09 21:35:30;;;;;;;11.80;7.00;;;;;;;18.21;69.93;99438.90;273839;1266;22207;-78
2023/07/09 21:41:31;;;;;;;9.50;7.60;;;;;;;17.97;70.50;99433.39;273686;1260;22344;-77
2023/07/09 21:47:51;;;;;;;;;;;;;;;;;;;;;
2023/07/09 21:54:00;;;;;;;;;;;;;;;17.72;72.32;99434.39;273878;1265;22559;-77
2023/07/09 22:00:03;;;;;;;12.50;7.90;;;;;;;17.61;73.31;99441.39;271933;1257;22412;-77
2023/07/09 22:06:24;;;;;;;10.40;8.10;;;;;;;17.50;73.51;99450.44;274049;1266;23399;-77
2023/07/09 22:12:39;;;;;;;14.50;7.90;;;;;;;17.40;74.34;99454.95;273878;1251;24209;-80
2023/07/09 22:18:45;;;;;;;12.50;7.90;;;;;;;17.31;74.82;99463.62;273775;1266;22444;-77
2023/07/09 22:24:46;;;;;;;12.10;8.30;;;;;;;17.21;75.48;99467.81;273983;1266;22328;-77
2023/07/09 22:31:04;;;;;;;;;;;;;;;;;;;;;
2023/07/09 22:37:30;;;;;;;14.20;8.10;;;;;;;16.89;75.88;99459.84;273716;1266;22433;-78
2023/07/09 22:43:36;;;;;;;9.10;7.60;;;;;;;16.72;76.67;99467.30;273774;1266;22202;-78
2023/07/09 22:50:00;;;;;;;10.10;7.50;;;;;;;16.57;77.56;99461.07;273842;1256;22445;-78
2023/07/09 22:56:14;;;;;;;10.20;8.30;;;;;;;16.42;78.10;99463.58;273832;1266;22365;-78
2023/07/09 23:02:55;;;;;;;10.20;7.30;;;;;;;16.31;79.07;99472.30;273903;1266;23017;-79
2023/07/09 23:08:57;;;;;;;11.10;6.70;;;;;;;16.26;80.55;99480.38;273902;1266;22209;-78
2023/07/09 23:15:29;;;;;;;12.30;7.20;;;;;;;16.23;80.99;99473.29;273740;1266;22566;-78
2023/07/09 23:21:36;;;;;;;12.00;7.80;;;;;;;16.07;80.91;99471.84;273226;1266;22521;-77
2023/07/09 23:27:52;;;;;;;11.60;7.10;;;;;;;15.92;81.64;99473.46;273873;1266;22327;-77
2023/07/09 23:33:56;;;;;;;9.60;7.80;;;;;;;15.79;81.88;99461.81;269936;1260;22500;-78
2023/07/09 23:40:43;;;;;;;;;;;;;;;;;;;;;
2023/07/09 23:47:32;;;;;;;10.40;7.00;;;;;;;15.66;83.19;99467.14;270179;1260;22737;-78
2023/07/09 23:53:42;;;;;;;9.90;7.90;;;;;;;15.59;83.77;99469.12;273355;1266;23144;-82
